Time;durP1;ratioP1;P1;durP2;ratioP2;P2;SDS_P1;SDS_P2;PMS_P1;PMS_P2;Temp;Humidity;BMP_temperature;BMP_pressure;BME280_temperature;BME280_humidity;BME280_pressure;Samples;Min_cycle;Max_cycle;Signal;HPM_P1;HPM_P2
2022/04/25 00:01:10;;;;;;;16.40;8.05;;;;;;;;;;5096506;28;20043;-62
2022/04/25 00:03:36;;;;;;;13.80;8.50;;;;;;;;;;5095872;28;20054;-61
2022/04/25 00:06:03;;;;;;;16.25;8.80;;;;;;;;;;5095750;28;20044;-62
2022/04/25 00:08:29;;;;;;;14.60;7.95;;;;;;;;;;5111141;28;20168;-62
2022/04/25 00:10:55;;;;;;;19.15;8.50;;;;;;;;;;5114957;28;20044;-61
2022/04/25 00:13:21;;;;;;;17.70;7.43;;;;;;;;;;5113817;28;20059;-61
2022/04/25 00:15:47;;;;;;;18.25;9.25;;;;;;;;;;5113846;28;20040;-61
2022/04/25 00:18:13;;;;;;;17.65;8.32;;;;;;;;;;5111975;28;20046;-62
2022/04/25 00:20:39;;;;;;;21.05;9.02;;;;;;;;;;5113092;28;20051;-61
2022/04/25 00:23:05;;;;;;;18.17;7.70;;;;;;;;;;5096862;28;20047;-62
2022/04/25 00:25:35;;;;;;;19.20;8.75;;;;;;;;;;5113774;28;20387;-61
2022/04/25 00:28:02;;;;;;;21.60;8.87;;;;;;;;;;5112401;28;20046;-62
2022/04/25 00:30:28;;;;;;;22.45;8.52;;;;;;;;;;5112776;28;20473;-61
2022/04/25 00:32:55;;;;;;;19.25;8.63;;;;;;;;;;5114582;28;21101;-61
2022/04/25 00:35:21;;;;;;;21.05;10.50;;;;;;;;;;5112311;28;20104;-62
2022/04/25 00:37:48;;;;;;;23.88;9.02;;;;;;;;;;5092467;28;20972;-62
2022/04/25 00:40:15;;;;;;;23.85;9.00;;;;;;;;;;5111589;28;20053;-61
2022/04/25 00:42:41;;;;;;;17.13;9.00;;;;;;;;;;5114104;28;20089;-61
2022/04/25 00:45:10;;;;;;;18.88;9.57;;;;;;;;;;5113146;28;20461;-61
2022/04/25 00:47:36;;;;;;;19.23;9.63;;;;;;;;;;5114120;28;20040;-61
2022/04/25 00:50:02;;;;;;;17.92;10.15;;;;;;;;;;5110115;28;20054;-61
2022/04/25 00:52:28;;;;;;;16.67;9.18;;;;;;;;;;5113292;28;20089;-61
2022/04/25 00:54:54;;;;;;;19.02;10.02;;;;;;;;;;5113385;28;20047;-61
2022/04/25 00:57:21;;;;;;;16.58;9.25;;;;;;;;;;5113840;28;20047;-61
2022/04/25 00:59:48;;;;;;;23.85;9.70;;;;;;;;;;5095066;28;20083;-61
2022/04/25 01:02:14;;;;;;;18.02;9.95;;;;;;;;;;5111677;28;20088;-61
2022/04/25 01:04:40;;;;;;;19.92;10.18;;;;;;;;;;5113473;28;20044;-61
2022/04/25 01:07:06;;;;;;;21.90;10.88;;;;;;;;;;5112875;28;20104;-61
2022/04/25 01:09:32;;;;;;;19.58;10.52;;;;;;;;;;5113271;28;20051;-61
2022/04/25 01:11:58;;;;;;;22.83;11.23;;;;;;;;;;5109963;28;20043;-61
2022/04/25 01:14:25;;;;;;;22.25;10.55;;;;;;;;;;5111487;28;20074;-61
2022/04/25 01:16:51;;;;;;;20.30;10.35;;;;;;;;;;5113618;28;20728;-61
2022/04/25 01:19:17;;;;;;;21.15;10.75;;;;;;;;;;5112922;28;20044;-61
2022/04/25 01:21:44;;;;;;;19.92;10.63;;;;;;;;;;5093368;28;20132;-61
2022/04/25 01:29:41;;;;;;;19.92;10.50;;;;;;;;;;5112473;28;20051;-64
2022/04/25 01:32:07;;;;;;;18.80;10.07;;;;;;;;;;5093364;28;20055;-63
2022/04/25 01:34:36;;;;;;;22.23;11.45;;;;;;;;;;5110896;28;20078;-65
2022/04/25 01:37:03;;;;;;;21.58;11.25;;;;;;;;;;5112474;28;20087;-62
2022/04/25 01:39:29;;;;;;;18.15;10.65;;;;;;;;;;5111898;28;20059;-61
2022/04/25 01:41:55;;;;;;;24.08;11.13;;;;;;;;;;5110780;28;20047;-61
2022/04/25 01:44:21;;;;;;;23.52;12.02;;;;;;;;;;5112751;28;20050;-61
2022/04/25 01:46:47;;;;;;;18.90;10.13;;;;;;;;;;5113288;28;20434;-61
2022/04/25 01:49:13;;;;;;;21.85;10.77;;;;;;;;;;5112234;28;20047;-61
2022/04/25 01:51:42;;;;;;;21.30;11.20;;;;;;;;;;5110743;28;20043;-61
2022/04/25 01:54:08;;;;;;;21.48;11.07;;;;;;;;;;5111914;28;20047;-61
2022/04/25 01:56:34;;;;;;;24.23;11.55;;;;;;;;;;5113140;28;20502;-61
2022/04/25 01:59:00;;;;;;;22.27;11.23;;;;;;;;;;5112296;28;20104;-61
2022/04/25 02:01:26;;;;;;;20.67;11.18;;;;;;;;;;5110752;28;20052;-62
2022/04/25 02:03:52;;;;;;;19.83;11.85;;;;;;;;;;5086339;28;20059;-62
2022/04/25 02:06:18;;;;;;;26.52;13.15;;;;;;;;;;5112003;28;20050;-62
2022/04/25 02:08:46;;;;;;;25.25;12.43;;;;;;;;;;5112777;28;20043;-62
2022/04/25 02:11:21;;;;;;;23.15;12.52;;;;;;;;;;5112242;28;20118;-62
2022/04/25 02:13:51;;;;;;;25.60;13.27;;;;;;;;;;5109538;28;20040;-61
2022/04/25 02:16:18;;;;;;;23.33;12.30;;;;;;;;;;5110941;28;20048;-62
2022/04/25 02:18:44;;;;;;;19.38;12.77;;;;;;;;;;5111509;28;20148;-62
2022/04/25 02:21:10;;;;;;;20.15;13.00;;;;;;;;;;5094404;28;20054;-62
2022/04/25 02:23:36;;;;;;;20.40;12.82;;;;;;;;;;5112359;28;20043;-62
2022/04/25 02:26:02;;;;;;;24.10;13.65;;;;;;;;;;5112384;28;20043;-62
2022/04/25 02:28:28;;;;;;;26.00;13.27;;;;;;;;;;5109541;28;20044;-62
2022/04/25 02:30:54;;;;;;;26.35;13.25;;;;;;;;;;5094196;28;20113;-62
2022/04/25 02:33:20;;;;;;;22.40;13.75;;;;;;;;;;5111279;28;20063;-62
2022/04/25 02:35:47;;;;;;;24.80;14.10;;;;;;;;;;5109081;28;20110;-62
2022/04/25 02:38:13;;;;;;;25.50;13.73;;;;;;;;;;5110000;28;20054;-62
2022/04/25 02:40:39;;;;;;;23.40;13.60;;;;;;;;;;5111602;28;20043;-62
2022/04/25 02:43:05;;;;;;;25.65;13.57;;;;;;;;;;5112662;28;20070;-62
2022/04/25 02:45:31;;;;;;;23.38;13.30;;;;;;;;;;5110340;28;20044;-61
2022/04/25 02:47:57;;;;;;;23.00;12.82;;;;;;;;;;5109275;28;20043;-62
2022/04/25 02:50:23;;;;;;;22.50;12.95;;;;;;;;;;5094443;28;20475;-62
2022/04/25 02:52:53;;;;;;;23.23;13.50;;;;;;;;;;5093891;28;20032;-61
2022/04/25 02:55:19;;;;;;;25.25;13.88;;;;;;;;;;5111385;28;20039;-61
2022/04/25 02:57:45;;;;;;;27.63;13.93;;;;;;;;;;5076145;28;20043;-61
2022/04/25 03:00:11;;;;;;;32.83;14.48;;;;;;;;;;5111860;28;20058;-61
2022/04/25 03:02:37;;;;;;;23.05;12.88;;;;;;;;;;5112305;28;20196;-62
2022/04/25 03:05:03;;;;;;;27.60;14.02;;;;;;;;;;5093425;28;20547;-62
2022/04/25 03:07:29;;;;;;;22.92;13.00;;;;;;;;;;5099005;28;20052;-61
2022/04/25 03:09:56;;;;;;;28.67;14.40;;;;;;;;;;5112112;28;20498;-62
2022/04/25 03:12:22;;;;;;;23.90;13.13;;;;;;;;;;5093342;28;20610;-62
2022/04/25 03:14:48;;;;;;;26.58;13.48;;;;;;;;;;5113704;28;20438;-62
2022/04/25 03:17:14;;;;;;;25.38;12.77;;;;;;;;;;5114007;28;20092;-62
2022/04/25 03:19:40;;;;;;;25.55;13.40;;;;;;;;;;5115303;28;20096;-61
2022/04/25 03:22:06;;;;;;;21.10;12.35;;;;;;;;;;5097733;28;20112;-62
2022/04/25 03:24:32;;;;;;;23.35;13.02;;;;;;;;;;5115033;28;20050;-61
2022/04/25 03:26:58;;;;;;;22.67;13.45;;;;;;;;;;5114088;28;20044;-61
2022/04/25 03:29:24;;;;;;;27.98;13.20;;;;;;;;;;5114443;28;20039;-61
2022/04/25 03:31:52;;;;;;;24.33;13.68;;;;;;;;;;5115535;28;20494;-61
2022/04/25 03:34:18;;;;;;;25.98;15.35;;;;;;;;;;5107853;28;20543;-61
2022/04/25 03:36:44;;;;;;;23.52;12.05;;;;;;;;;;5114154;28;20051;-61
2022/04/25 03:39:10;;;;;;;22.77;12.32;;;;;;;;;;5115449;28;20043;-61
2022/04/25 03:41:36;;;;;;;27.65;14.43;;;;;;;;;;5114812;28;20048;-62
2022/04/25 03:44:03;;;;;;;22.77;12.43;;;;;;;;;;5114169;28;20388;-61
2022/04/25 03:46:30;;;;;;;26.48;12.98;;;;;;;;;;5115016;28;20526;-61
2022/04/25 03:48:56;;;;;;;23.65;12.35;;;;;;;;;;5113375;28;20047;-62
2022/04/25 03:51:22;;;;;;;24.88;12.82;;;;;;;;;;5095462;28;20039;-61
2022/04/25 03:53:48;;;;;;;22.88;13.05;;;;;;;;;;5115369;28;20142;-61
2022/04/25 03:58:59;;;;;;;25.23;12.90;;;;;;;;;;5098862;28;20043;-61
2022/04/25 04:01:26;;;;;;;22.85;12.63;;;;;;;;;;5112327;28;20117;-61
2022/04/25 04:03:52;;;;;;;29.38;13.10;;;;;;;;;;5115157;28;20047;-61
2022/04/25 04:06:18;;;;;;;23.20;13.23;;;;;;;;;;5114807;28;20065;-61
2022/04/25 04:08:44;;;;;;;41.08;14.07;;;;;;;;;;5114184;28;20047;-61
2022/04/25 04:11:10;;;;;;;21.30;12.73;;;;;;;;;;5095166;28;20048;-61
2022/04/25 04:13:39;;;;;;;29.73;15.25;;;;;;;;;;5114756;28;20094;-61
2022/04/25 04:16:05;;;;;;;26.05;13.60;;;;;;;;;;5114297;28;20179;-61
2022/04/25 04:18:31;;;;;;;23.50;13.85;;;;;;;;;;5096268;28;20047;-61
2022/04/25 04:20:57;;;;;;;25.17;12.77;;;;;;;;;;5114505;28;20100;-61
2022/04/25 04:23:23;;;;;;;29.30;14.90;;;;;;;;;;5113316;28;20537;-61
2022/04/25 04:25:49;;;;;;;24.23;14.98;;;;;;;;;;5113679;28;20043;-61
2022/04/25 04:28:15;;;;;;;23.98;13.40;;;;;;;;;;5093735;28;20044;-62
2022/04/25 04:30:43;;;;;;;24.73;13.55;;;;;;;;;;5114835;28;20039;-62
2022/04/25 04:33:09;;;;;;;26.30;13.50;;;;;;;;;;5112244;28;20118;-61
2022/04/25 04:38:20;;;;;;;27.33;13.77;;;;;;;;;;5113560;28;20083;-61
2022/04/25 04:40:46;;;;;;;24.25;14.05;;;;;;;;;;5114371;28;20090;-61
2022/04/25 04:43:12;;;;;;;23.98;13.40;;;;;;;;;;5111944;28;20046;-61
2022/04/25 04:45:38;;;;;;;22.20;13.45;;;;;;;;;;5114366;28;20044;-61
2022/04/25 04:48:04;;;;;;;26.85;14.30;;;;;;;;;;5112982;28;20120;-61
2022/04/25 04:50:30;;;;;;;25.02;14.02;;;;;;;;;;5113871;28;20050;-61
2022/04/25 04:53:00;;;;;;;24.40;13.68;;;;;;;;;;5094106;28;20100;-61
2022/04/25 04:55:26;;;;;;;27.13;14.07;;;;;;;;;;5114187;28;20047;-61
2022/04/25 04:57:53;;;;;;;28.20;14.45;;;;;;;;;;5113217;28;20384;-61
2022/04/25 05:00:19;;;;;;;27.95;13.90;;;;;;;;;;5114240;28;20052;-61
2022/04/25 05:02:45;;;;;;;25.60;13.20;;;;;;;;;;5093885;28;20049;-61
2022/04/25 05:05:12;;;;;;;26.00;14.85;;;;;;;;;;5112129;28;20079;-61
2022/04/25 05:07:38;;;;;;;24.13;13.30;;;;;;;;;;5079164;28;20084;-61
2022/04/25 05:10:06;;;;;;;26.67;13.32;;;;;;;;;;5112564;28;20046;-61
2022/04/25 05:12:42;;;;;;;24.63;12.60;;;;;;;;;;5093794;28;20058;-61
2022/04/25 05:15:09;;;;;;;24.30;13.25;;;;;;;;;;5114140;28;20043;-61
2022/04/25 05:17:34;;;;;;;19.70;12.02;;;;;;;;;;5094108;28;20073;-61
2022/04/25 05:20:00;;;;;;;22.20;13.73;;;;;;;;;;5113521;28;20404;-61
2022/04/25 05:22:26;;;;;;;24.92;13.63;;;;;;;;;;5111746;28;20054;-61
2022/04/25 05:24:52;;;;;;;25.25;13.32;;;;;;;;;;5111375;28;20502;-61
2022/04/25 05:27:18;;;;;;;23.63;13.10;;;;;;;;;;5112939;28;20050;-61
2022/04/25 05:29:44;;;;;;;24.67;14.35;;;;;;;;;;5112305;28;20059;-61
2022/04/25 05:32:11;;;;;;;22.73;12.85;;;;;;;;;;5113353;28;20161;-59
2022/04/25 05:34:37;;;;;;;22.08;13.50;;;;;;;;;;5110072;28;20051;-59
2022/04/25 05:37:03;;;;;;;22.13;13.45;;;;;;;;;;5111112;28;20048;-60
2022/04/25 05:39:30;;;;;;;21.70;12.75;;;;;;;;;;5094292;28;20032;-59
2022/04/25 05:41:56;;;;;;;20.88;12.05;;;;;;;;;;5112452;28;20513;-59
2022/04/25 05:44:22;;;;;;;22.17;13.25;;;;;;;;;;5110031;28;20509;-59
2022/04/25 05:46:48;;;;;;;21.73;12.63;;;;;;;;;;5091611;28;20480;-59
2022/04/25 05:51:58;;;;;;;22.52;12.82;;;;;;;;;;5096821;28;20098;-60
2022/04/25 05:54:24;;;;;;;22.48;11.45;;;;;;;;;;5091075;28;20043;-59
2022/04/25 05:56:50;;;;;;;18.90;10.98;;;;;;;;;;5110892;28;20042;-59
2022/04/25 05:59:16;;;;;;;20.58;11.50;;;;;;;;;;5110968;28;20044;-62
2022/04/25 06:04:18;;;;;;;16.02;10.00;;;;;;;;;;5492555;22;20067;-64
2022/04/25 06:06:44;;;;;;;16.90;10.50;;;;;;;;;;5052347;28;20059;-60
2022/04/25 06:09:10;;;;;;;17.45;10.13;;;;;;;;;;5071704;28;20044;-59
2022/04/25 06:11:36;;;;;;;14.88;10.07;;;;;;;;;;5042290;28;20036;-60
2022/04/25 06:14:02;;;;;;;17.92;10.60;;;;;;;;;;5037268;28;20380;-61
2022/04/25 06:16:28;;;;;;;15.75;9.82;;;;;;;;;;5071453;28;20040;-60
2022/04/25 06:18:54;;;;;;;17.15;10.27;;;;;;;;;;5053403;28;20044;-60
2022/04/25 06:21:20;;;;;;;15.93;9.65;;;;;;;;;;5069250;28;20053;-60
2022/04/25 06:23:46;;;;;;;16.73;9.48;;;;;;;;;;5070954;28;20064;-59
2022/04/25 06:26:12;;;;;;;15.25;8.57;;;;;;;;;;5069761;28;20079;-58
2022/04/25 06:28:41;;;;;;;16.52;10.00;;;;;;;;;;5071178;28;20552;-58
2022/04/25 06:31:07;;;;;;;16.15;9.65;;;;;;;;;;5070172;28;20098;-58
2022/04/25 06:33:36;;;;;;;14.95;9.18;;;;;;;;;;5067574;28;20098;-61
2022/04/25 06:36:03;;;;;;;16.13;9.70;;;;;;;;;;5051056;28;20403;-62
2022/04/25 06:38:31;;;;;;;17.52;9.20;;;;;;;;;;5053781;28;20048;-61
2022/04/25 06:41:00;;;;;;;14.63;9.15;;;;;;;;;;5054208;28;20087;-61
2022/04/25 06:43:26;;;;;;;16.10;10.48;;;;;;;;;;5053002;28;20052;-62
2022/04/25 06:45:51;;;;;;;15.60;9.35;;;;;;;;;;5045539;28;20041;-61
2022/04/25 06:48:17;;;;;;;15.23;8.80;;;;;;;;;;5071388;28;20577;-60
2022/04/25 06:50:43;;;;;;;16.92;9.10;;;;;;;;;;5074659;28;20045;-61
2022/04/25 06:53:11;;;;;;;20.30;9.82;;;;;;;;;;5075024;28;20055;-62
2022/04/25 06:55:40;;;;;;;17.38;9.68;;;;;;;;;;5056061;28;20137;-60
2022/04/25 06:58:08;;;;;;;14.15;8.90;;;;;;;;;;5050654;28;20053;-60
2022/04/25 07:00:36;;;;;;;16.58;10.75;;;;;;;;;;5072999;28;20399;-60
2022/04/25 07:03:02;;;;;;;13.80;8.70;;;;;;;;;;5054311;28;20044;-61
2022/04/25 07:05:29;;;;;;;19.70;9.85;;;;;;;;;;5060457;28;20044;-60
2022/04/25 07:07:57;;;;;;;16.58;9.60;;;;;;;;;;5041290;28;20044;-59
2022/04/25 07:10:23;;;;;;;19.35;9.25;;;;;;;;;;5026135;28;20051;-61
2022/04/25 07:12:53;;;;;;;15.00;8.77;;;;;;;;;;5051816;28;20040;-58
2022/04/25 07:15:20;;;;;;;12.93;8.73;;;;;;;;;;5053393;28;20045;-60
2022/04/25 07:17:46;;;;;;;13.75;9.02;;;;;;;;;;5074814;28;20491;-59
2022/04/25 07:20:12;;;;;;;16.50;8.98;;;;;;;;;;5075176;28;20072;-59
2022/04/25 07:30:52;;;;;;;15.45;8.70;;;;;;;;;;5075526;28;20198;-60
2022/04/25 07:33:18;;;;;;;15.43;8.35;;;;;;;;;;5060714;28;20488;-60
2022/04/25 07:35:44;;;;;;;13.80;9.00;;;;;;;;;;5045336;28;20055;-60
2022/04/25 07:38:11;;;;;;;14.60;8.60;;;;;;;;;;5056344;28;20106;-58
2022/04/25 07:40:37;;;;;;;15.43;9.10;;;;;;;;;;5059605;28;20045;-59
2022/04/25 07:43:03;;;;;;;13.30;7.78;;;;;;;;;;5051475;28;20103;-60
2022/04/25 07:45:32;;;;;;;16.08;7.88;;;;;;;;;;5060726;28;20046;-59
2022/04/25 07:47:58;;;;;;;15.88;8.50;;;;;;;;;;5072884;28;20044;-61
2022/04/25 07:50:25;;;;;;;14.50;7.80;;;;;;;;;;5069332;28;20072;-59
2022/04/25 07:52:54;;;;;;;14.38;9.32;;;;;;;;;;5038879;28;20048;-63
2022/04/25 07:55:23;;;;;;;15.18;8.65;;;;;;;;;;5066171;28;20185;-60
2022/04/25 07:57:49;;;;;;;14.02;8.40;;;;;;;;;;5052270;28;20052;-60
2022/04/25 08:00:15;;;;;;;15.43;7.78;;;;;;;;;;5067208;28;20510;-60
2022/04/25 08:02:41;;;;;;;13.68;7.75;;;;;;;;;;5056107;28;20044;-60
2022/04/25 08:05:08;;;;;;;14.57;8.18;;;;;;;;;;5069892;28;20073;-58
2022/04/25 08:07:37;;;;;;;17.33;8.30;;;;;;;;;;5094775;28;20063;-58
2022/04/25 08:10:03;;;;;;;14.30;8.13;;;;;;;;;;5084088;28;20060;-62
2022/04/25 08:18:01;;;;;;;15.25;7.63;;;;;;;;;;5073734;28;20049;-59
2022/04/25 08:20:28;;;;;;;18.25;8.27;;;;;;;;;;5070233;28;22243;-59
2022/04/25 08:22:55;;;;;;;13.80;8.13;;;;;;;;;;5080911;28;20040;-58
2022/04/25 08:25:21;;;;;;;16.60;9.25;;;;;;;;;;5059966;28;20044;-58
2022/04/25 08:27:47;;;;;;;16.15;9.35;;;;;;;;;;5066955;28;20493;-59
2022/04/25 08:30:14;;;;;;;14.82;8.77;;;;;;;;;;5057422;28;20052;-60
2022/04/25 08:32:43;;;;;;;20.55;9.00;;;;;;;;;;5072237;28;20036;-59
2022/04/25 08:35:09;;;;;;;20.55;9.38;;;;;;;;;;5047698;28;20041;-60
2022/04/25 08:37:35;;;;;;;14.77;7.78;;;;;;;;;;5069209;28;20042;-60
2022/04/25 08:40:01;;;;;;;19.58;10.50;;;;;;;;;;5081436;28;20054;-63
2022/04/25 08:42:32;;;;;;;18.77;9.45;;;;;;;;;;5063834;28;20780;-60
2022/04/25 08:44:58;;;;;;;;;;;;;;;;;;5072464;28;20049;-60
2022/04/25 08:47:30;;;;;;;17.25;10.60;;;;;;;;;;5073360;28;19981;-60
2022/04/25 08:49:58;;;;;;;19.73;11.23;;;;;;;;;;5073740;28;20049;-60
2022/04/25 08:52:26;;;;;;;19.60;11.40;;;;;;;;;;5056488;28;20404;-60
2022/04/25 08:54:54;;;;;;;17.30;9.63;;;;;;;;;;5070223;28;20094;-60
2022/04/25 08:57:20;;;;;;;20.63;10.55;;;;;;;;;;5073443;28;20052;-59
2022/04/25 08:59:47;;;;;;;16.13;10.75;;;;;;;;;;5054362;28;20104;-60
2022/04/25 09:02:13;;;;;;;23.08;10.75;;;;;;;;;;5071478;28;20140;-60
2022/04/25 09:04:39;;;;;;;16.60;10.73;;;;;;;;;;5081785;28;20055;-59
2022/04/25 09:07:05;;;;;;;21.73;10.38;;;;;;;;;;5058922;28;20048;-59
2022/04/25 09:09:31;;;;;;;23.10;10.90;;;;;;;;;;5059055;28;20053;-59
2022/04/25 09:12:10;;;;;;;16.35;10.85;;;;;;;;;;5073263;28;20048;-60
2022/04/25 09:14:40;;;;;;;17.42;10.93;;;;;;;;;;5041043;28;20476;-60
2022/04/25 09:17:07;;;;;;;21.42;9.50;;;;;;;;;;5073253;28;20053;-57
2022/04/25 09:19:36;;;;;;;18.67;10.90;;;;;;;;;;5067576;28;20071;-59
2022/04/25 09:22:03;;;;;;;17.05;10.05;;;;;;;;;;5069412;28;20484;-58
2022/04/25 09:24:30;;;;;;;20.77;10.73;;;;;;;;;;5070197;28;20048;-58
2022/04/25 09:27:08;;;;;;;20.50;10.07;;;;;;;;;;5071805;28;20093;-58
2022/04/25 09:29:35;;;;;;;16.10;9.02;;;;;;;;;;5068651;28;20060;-58
2022/04/25 09:32:01;;;;;;;22.98;10.60;;;;;;;;;;5071044;28;20049;-60
2022/04/25 09:37:14;;;;;;;18.08;10.05;;;;;;;;;;5073832;28;20044;-60
2022/04/25 09:39:45;;;;;;;20.25;10.27;;;;;;;;;;5062003;28;20093;-60
2022/04/25 09:42:10;;;;;;;;;;;;;;;;;;5073276;28;20044;-61
2022/04/25 09:44:56;;;;;;;18.63;10.13;;;;;;;;;;5070922;28;20489;-60
2022/04/25 09:47:36;;;;;;;21.33;11.05;;;;;;;;;;5071233;28;20127;-60
2022/04/25 09:50:02;;;;;;;16.83;9.00;;;;;;;;;;5071456;28;20045;-61
2022/04/25 09:52:28;;;;;;;15.75;10.00;;;;;;;;;;5069572;28;20565;-60
2022/04/25 09:54:56;;;;;;;18.13;10.07;;;;;;;;;;5072291;28;20395;-60
2022/04/25 09:57:32;;;;;;;16.92;10.07;;;;;;;;;;5071640;28;20585;-60
2022/04/25 09:59:59;;;;;;;17.73;10.00;;;;;;;;;;5060890;28;20048;-61
2022/04/25 10:02:25;;;;;;;17.10;10.25;;;;;;;;;;5071274;28;20071;-60
2022/04/25 10:04:52;;;;;;;20.50;11.40;;;;;;;;;;5071762;28;20446;-60
2022/04/25 10:07:22;;;;;;;13.80;9.00;;;;;;;;;;5037204;28;20397;-58
2022/04/25 10:09:52;;;;;;;17.45;9.32;;;;;;;;;;5071679;28;20408;-59
2022/04/25 10:12:20;;;;;;;17.30;10.38;;;;;;;;;;5057939;28;20052;-60
2022/04/25 10:14:50;;;;;;;17.70;10.38;;;;;;;;;;5030609;28;20462;-60
2022/04/25 10:17:16;;;;;;;22.90;11.52;;;;;;;;;;5072379;28;20048;-60
2022/04/25 10:19:47;;;;;;;16.73;11.10;;;;;;;;;;5019768;28;20102;-59
2022/04/25 10:22:16;;;;;;;19.15;9.82;;;;;;;;;;5058885;28;20053;-60
2022/04/25 10:24:45;;;;;;;16.73;11.10;;;;;;;;;;5053085;28;20045;-61
2022/04/25 10:27:14;;;;;;;17.77;10.35;;;;;;;;;;5060257;28;20053;-61
2022/04/25 10:29:44;;;;;;;16.63;9.18;;;;;;;;;;5033429;28;20381;-63
2022/04/25 10:32:11;;;;;;;11.90;7.72;;;;;;;;;;5046451;28;20052;-61
2022/04/25 10:34:59;;;;;;;15.05;9.20;;;;;;;;;;5030769;28;20052;-60
2022/04/25 10:37:34;;;;;;;13.30;8.02;;;;;;;;;;5044545;28;20545;-60
2022/04/25 10:40:07;;;;;;;14.82;8.50;;;;;;;;;;5064521;28;20048;-60
2022/04/25 10:45:53;;;;;;;15.07;7.13;;;;;;;;;;5070195;28;20040;-62
2022/04/25 10:48:19;;;;;;;10.23;6.70;;;;;;;;;;5066616;28;20041;-62
2022/04/25 10:51:18;;;;;;;13.68;7.05;;;;;;;;;;5070445;28;20041;-61
2022/04/25 10:54:03;;;;;;;13.73;7.68;;;;;;;;;;5018881;28;20139;-62
2022/04/25 10:56:30;;;;;;;12.73;6.57;;;;;;;;;;5052512;28;20553;-60
2022/04/25 10:59:21;;;;;;;15.57;7.72;;;;;;;;;;5034721;28;20098;-60
2022/04/25 11:01:48;;;;;;;16.23;7.88;;;;;;;;;;5072366;28;20101;-59
2022/04/25 11:04:14;;;;;;;11.27;6.82;;;;;;;;;;5054806;28;20573;-59
2022/04/25 11:06:40;;;;;;;12.63;7.68;;;;;;;;;;5070132;28;20044;-59
2022/04/25 11:09:06;;;;;;;11.55;6.50;;;;;;;;;;5036506;28;20049;-60
2022/04/25 11:11:48;;;;;;;13.00;7.28;;;;;;;;;;5068240;28;20178;-58
2022/04/25 11:14:15;;;;;;;12.77;7.75;;;;;;;;;;5066860;28;20098;-58
2022/04/25 11:16:41;;;;;;;13.75;8.00;;;;;;;;;;5037568;28;20048;-58
2022/04/25 11:19:12;;;;;;;14.95;7.50;;;;;;;;;;5072737;28;20123;-57
2022/04/25 11:21:49;;;;;;;14.68;8.15;;;;;;;;;;5052455;28;20045;-57
2022/04/25 11:24:33;;;;;;;14.10;6.90;;;;;;;;;;5072038;28;20052;-58
2022/04/25 11:27:00;;;;;;;15.38;7.65;;;;;;;;;;5072607;28;20565;-57
2022/04/25 11:29:26;;;;;;;13.10;7.28;;;;;;;;;;5047401;28;20151;-57
2022/04/25 11:31:52;;;;;;;16.58;8.15;;;;;;;;;;5072941;28;20052;-58
2022/04/25 11:34:22;;;;;;;13.82;8.43;;;;;;;;;;5037213;28;20051;-58
2022/04/25 11:36:48;;;;;;;12.43;6.90;;;;;;;;;;5037490;28;20489;-57
2022/04/25 11:41:59;;;;;;;13.05;8.00;;;;;;;;;;5068979;28;20052;-57
2022/04/25 11:44:25;;;;;;;13.10;7.22;;;;;;;;;;5028592;28;20395;-57
2022/04/25 11:46:53;;;;;;;17.90;8.07;;;;;;;;;;5059319;28;20040;-58
2022/04/25 11:49:29;;;;;;;16.10;8.15;;;;;;;;;;5070541;28;20060;-57
2022/04/25 11:51:58;;;;;;;18.15;10.07;;;;;;;;;;5024439;28;20052;-58
2022/04/25 11:54:26;;;;;;;11.00;7.78;;;;;;;;;;5054402;28;20048;-58
2022/04/25 11:56:52;;;;;;;13.30;7.28;;;;;;;;;;5051714;28;20090;-57
2022/04/25 11:59:19;;;;;;;14.85;8.48;;;;;;;;;;5071063;28;20399;-59
2022/04/25 12:01:48;;;;;;;11.38;7.45;;;;;;;;;;5060705;28;20040;-58
2022/04/25 12:04:18;;;;;;;11.98;7.88;;;;;;;;;;5031438;28;20068;-59
2022/04/25 12:06:50;;;;;;;15.70;7.93;;;;;;;;;;5051732;28;20041;-58
2022/04/25 12:17:40;;;;;;;13.55;8.07;;;;;;;;;;5066799;28;20079;-58
2022/04/25 12:20:09;;;;;;;11.95;7.60;;;;;;;;;;5051025;28;20085;-58
2022/04/25 12:29:32;;;;;;;13.35;7.22;;;;;;;;;;5728790;22;20380;-59
2022/04/25 12:31:59;;;;;;;13.10;7.60;;;;;;;;;;5049575;28;20089;-59
2022/04/25 12:34:32;;;;;;;11.65;7.63;;;;;;;;;;5049869;28;20088;-57
2022/04/25 12:37:00;;;;;;;12.27;7.20;;;;;;;;;;5049845;28;20045;-59
2022/04/25 12:39:27;;;;;;;14.48;7.43;;;;;;;;;;5051961;28;20053;-59
2022/04/25 12:41:56;;;;;;;12.73;6.93;;;;;;;;;;5049441;28;20051;-58
2022/04/25 12:44:22;;;;;;;10.50;7.43;;;;;;;;;;5014936;28;20048;-58
2022/04/25 12:47:12;;;;;;;10.07;6.97;;;;;;;;;;5027225;28;20712;-58
2022/04/25 12:49:39;;;;;;;10.23;6.75;;;;;;;;;;5031610;28;20382;-59
2022/04/25 12:52:09;;;;;;;9.50;6.72;;;;;;;;;;5028539;28;20049;-57
2022/04/25 12:54:44;;;;;;;12.18;6.60;;;;;;;;;;5048994;28;20052;-58
2022/04/25 12:57:16;;;;;;;13.38;7.60;;;;;;;;;;5049146;28;20430;-57
2022/04/25 13:00:03;;;;;;;9.88;6.30;;;;;;;;;;5049221;28;20059;-57
2022/04/25 13:02:33;;;;;;;10.60;6.30;;;;;;;;;;5046282;28;20045;-57
2022/04/25 13:05:04;;;;;;;12.77;7.10;;;;;;;;;;5031168;28;20045;-57
2022/04/25 13:07:31;;;;;;;;;;;;;;;;;;5049600;28;20049;-58
2022/04/25 13:09:58;;;;;;;8.30;6.35;;;;;;;;;;5049189;28;20030;-58
2022/04/25 13:12:25;;;;;;;13.15;6.72;;;;;;;;;;5030178;28;20049;-58
2022/04/25 13:14:51;;;;;;;11.60;6.82;;;;;;;;;;5051253;28;20045;-57
2022/04/25 13:17:17;;;;;;;9.27;6.60;;;;;;;;;;5044676;28;20132;-58
2022/04/25 13:19:43;;;;;;;14.88;6.75;;;;;;;;;;5048959;28;20045;-57
2022/04/25 13:22:10;;;;;;;12.02;6.55;;;;;;;;;;5018315;28;20115;-57
2022/04/25 13:24:36;;;;;;;13.68;6.03;;;;;;;;;;5056595;28;20092;-57
2022/04/25 13:27:03;;;;;;;12.27;7.70;;;;;;;;;;5031201;28;20115;-57
2022/04/25 13:29:29;;;;;;;12.63;7.05;;;;;;;;;;5048267;28;20056;-58
2022/04/25 13:31:55;;;;;;;10.30;6.80;;;;;;;;;;5029223;28;20049;-57
2022/04/25 13:34:21;;;;;;;9.60;6.07;;;;;;;;;;5039377;28;20048;-57
2022/04/25 13:36:47;;;;;;;10.73;6.00;;;;;;;;;;5035433;28;20132;-58
2022/04/25 13:39:13;;;;;;;10.15;6.22;;;;;;;;;;5035201;28;20481;-57
2022/04/25 13:41:40;;;;;;;10.55;6.20;;;;;;;;;;5015715;28;20076;-57
2022/04/25 13:44:07;;;;;;;11.38;6.47;;;;;;;;;;5021629;28;20053;-58
2022/04/25 13:46:34;;;;;;;9.57;6.38;;;;;;;;;;5054895;28;20053;-57
2022/04/25 13:49:00;;;;;;;9.60;5.88;;;;;;;;;;5054884;28;20421;-57
2022/04/25 13:51:26;;;;;;;11.95;6.70;;;;;;;;;;5029517;28;20128;-58
2022/04/25 13:53:52;;;;;;;10.73;6.20;;;;;;;;;;5016313;28;20199;-57
2022/04/25 13:56:19;;;;;;;15.35;6.60;;;;;;;;;;5032948;28;20041;-58
2022/04/25 13:58:45;;;;;;;9.18;6.10;;;;;;;;;;5029448;28;20505;-57
2022/04/25 14:01:11;;;;;;;10.60;6.28;;;;;;;;;;5027188;28;20042;-57
2022/04/25 14:03:37;;;;;;;9.98;6.45;;;;;;;;;;5033533;28;20061;-57
2022/04/25 14:06:03;;;;;;;12.38;6.15;;;;;;;;;;5026932;28;20091;-57
2022/04/25 14:08:30;;;;;;;12.15;6.50;;;;;;;;;;5029631;28;20216;-59
2022/04/25 14:10:56;;;;;;;12.38;6.85;;;;;;;;;;5032554;28;20044;-58
2022/04/25 14:13:25;;;;;;;10.27;6.68;;;;;;;;;;5014786;28;20129;-60
2022/04/25 14:15:52;;;;;;;10.80;6.13;;;;;;;;;;5033459;28;20117;-59
2022/04/25 14:18:18;;;;;;;11.00;6.32;;;;;;;;;;4998632;28;20121;-59
2022/04/25 14:20:44;;;;;;;10.90;6.40;;;;;;;;;;5014797;28;20451;-59
2022/04/25 14:23:11;;;;;;;10.50;6.60;;;;;;;;;;5013981;28;20067;-60
2022/04/25 14:25:37;;;;;;;8.50;6.18;;;;;;;;;;5030217;28;20532;-58
2022/04/25 14:28:06;;;;;;;13.70;7.18;;;;;;;;;;4995760;28;20041;-57
2022/04/25 14:30:33;;;;;;;13.07;6.32;;;;;;;;;;5020207;28;20058;-58
2022/04/25 14:32:59;;;;;;;12.27;6.70;;;;;;;;;;4994068;28;20544;-57
2022/04/25 14:35:26;;;;;;;15.35;6.90;;;;;;;;;;4995616;28;20046;-57
2022/04/25 14:37:52;;;;;;;12.30;7.05;;;;;;;;;;4995999;28;20054;-59
2022/04/25 14:40:19;;;;;;;11.02;6.57;;;;;;;;;;4995164;28;20042;-59
2022/04/25 14:42:47;;;;;;;14.35;6.90;;;;;;;;;;4996019;28;20085;-58
2022/04/25 14:45:15;;;;;;;9.95;6.70;;;;;;;;;;4994140;28;20081;-58
2022/04/25 14:47:46;;;;;;;12.20;6.60;;;;;;;;;;4992898;28;20049;-59
2022/04/25 14:55:42;;;;;;;10.98;5.53;;;;;;;;;;5009059;28;20049;-61
2022/04/25 14:58:08;;;;;;;10.00;6.40;;;;;;;;;;4994191;28;20104;-60
2022/04/25 15:00:35;;;;;;;11.43;6.40;;;;;;;;;;5012505;28;20147;-59
2022/04/25 15:03:01;;;;;;;11.40;6.82;;;;;;;;;;5011468;28;20042;-63
2022/04/25 15:05:27;;;;;;;16.98;8.05;;;;;;;;;;5012981;28;20112;-59
2022/04/25 15:07:53;;;;;;;15.80;8.32;;;;;;;;;;5012359;28;20050;-60
2022/04/25 15:10:19;;;;;;;14.05;7.50;;;;;;;;;;5011143;28;20504;-59
2022/04/25 15:12:45;;;;;;;12.65;7.68;;;;;;;;;;5011153;28;20512;-58
2022/04/25 15:15:12;;;;;;;12.77;6.65;;;;;;;;;;4978410;28;20049;-59
2022/04/25 15:17:38;;;;;;;16.17;7.47;;;;;;;;;;4995977;28;20056;-60
2022/04/25 15:20:04;;;;;;;13.32;7.43;;;;;;;;;;4978963;28;20489;-62
2022/04/25 15:22:31;;;;;;;11.50;7.53;;;;;;;;;;5012666;28;20057;-61
2022/04/25 15:24:57;;;;;;;12.10;7.03;;;;;;;;;;4990957;28;20060;-61
2022/04/25 15:27:23;;;;;;;12.70;6.95;;;;;;;;;;5012818;28;20041;-60